Time;durP1;ratioP1;P1;durP2;ratioP2;P2;SDS_P1;SDS_P2;PMS_P1;PMS_P2;Temp;Humidity;BMP_temperature;BMP_pressure;BME280_temperature;BME280_humidity;BME280_pressure;Samples;Min_cycle;Max_cycle;Signal;HPM_P1;HPM_P2
2023/01/13 00:01:17;;;;;;;1.70;1.60;;;;;;;;;;5073454;28;20236;-51
2023/01/13 00:03:44;;;;;;;1.50;1.40;;;;;;;;;;5067319;28;20202;-51
2023/01/13 00:06:15;;;;;;;1.60;1.50;;;;;;;;;;5081431;28;20538;-50
2023/01/13 00:08:41;;;;;;;1.70;1.50;;;;;;;;;;5080232;28;20196;-52
2023/01/13 00:11:07;;;;;;;1.63;1.53;;;;;;;;;;5078513;28;20171;-50
2023/01/13 00:13:34;;;;;;;1.53;1.43;;;;;;;;;;5079699;28;20167;-50
2023/01/13 00:16:04;;;;;;;1.60;1.50;;;;;;;;;;5079393;28;20199;-51
2023/01/13 00:18:30;;;;;;;1.50;1.40;;;;;;;;;;5078451;28;20230;-51
2023/01/13 00:20:59;;;;;;;2.20;1.43;;;;;;;;;;5071321;28;20179;-51
2023/01/13 00:23:26;;;;;;;1.87;1.60;;;;;;;;;;5079279;28;20238;-51
2023/01/13 00:25:54;;;;;;;1.53;1.43;;;;;;;;;;5075619;28;20186;-50
2023/01/13 00:28:20;;;;;;;1.33;1.20;;;;;;;;;;5074939;28;20681;-51
2023/01/13 00:30:46;;;;;;;1.37;1.27;;;;;;;;;;5076940;28;20176;-49
2023/01/13 00:33:12;;;;;;;2.77;1.60;;;;;;;;;;5075990;28;20179;-50
2023/01/13 00:35:38;;;;;;;4.20;1.53;;;;;;;;;;5083888;27;20219;-49
2023/01/13 00:38:04;;;;;;;3.83;1.43;;;;;;;;;;5073127;28;21735;-50
2023/01/13 00:40:30;;;;;;;2.80;1.80;;;;;;;;;;5074368;28;20263;-51
2023/01/13 00:45:41;;;;;;;1.40;1.30;;;;;;;;;;5078142;28;20203;-51
2023/01/13 00:48:07;;;;;;;2.13;1.50;;;;;;;;;;5076908;28;20192;-52
2023/01/13 00:50:33;;;;;;;4.17;1.97;;;;;;;;;;5077396;28;20195;-51
2023/01/13 00:53:00;;;;;;;3.70;1.83;;;;;;;;;;5077729;28;20184;-50
2023/01/13 00:55:26;;;;;;;2.87;1.50;;;;;;;;;;5075299;28;20631;-50
2023/01/13 00:57:52;;;;;;;3.23;2.13;;;;;;;;;;5075762;28;20187;-51
2023/01/13 01:00:18;;;;;;;2.50;1.60;;;;;;;;;;5077007;28;20176;-50
2023/01/13 01:02:44;;;;;;;3.40;1.77;;;;;;;;;;5074669;28;20183;-50
2023/01/13 01:05:10;;;;;;;5.50;2.03;;;;;;;;;;5079195;28;20179;-51
2023/01/13 01:07:36;;;;;;;3.27;1.63;;;;;;;;;;5079996;28;20633;-50
2023/01/13 01:10:02;;;;;;;3.97;1.80;;;;;;;;;;5065435;28;20723;-50
2023/01/13 01:12:28;;;;;;;3.67;1.50;;;;;;;;;;5078307;28;20599;-51
2023/01/13 01:14:54;;;;;;;5.43;2.13;;;;;;;;;;5085670;28;20630;-50
2023/01/13 01:17:20;;;;;;;2.03;1.73;;;;;;;;;;5084659;28;20200;-50
2023/01/13 01:19:46;;;;;;;5.13;1.93;;;;;;;;;;5083606;28;20547;-50
2023/01/13 01:22:12;;;;;;;3.27;1.80;;;;;;;;;;5076437;28;20176;-50
2023/01/13 01:24:39;;;;;;;7.03;2.10;;;;;;;;;;5075244;28;20164;-50
2023/01/13 01:27:05;;;;;;;7.20;2.20;;;;;;;;;;5076397;28;20177;-50
2023/01/13 01:29:31;;;;;;;4.50;1.70;;;;;;;;;;5083494;28;20188;-49
2023/01/13 01:31:58;;;;;;;4.37;1.93;;;;;;;;;;5078606;28;20249;-50
2023/01/13 01:34:24;;;;;;;4.47;1.83;;;;;;;;;;5076988;28;20719;-49
2023/01/13 01:36:50;;;;;;;5.03;2.20;;;;;;;;;;5081354;28;20741;-51
2023/01/13 01:39:16;;;;;;;4.00;2.07;;;;;;;;;;5082333;28;20712;-52
2023/01/13 01:43:57;;;;;;;5.43;2.00;;;;;;;;;;5079172;28;20203;-50
2023/01/13 01:44:47;;;;;;;6.47;2.20;;;;;;;;;;5080569;28;20182;-49
2023/01/13 01:47:17;;;;;;;5.90;2.40;;;;;;;;;;5082952;28;20180;-49
2023/01/13 01:49:44;;;;;;;7.77;2.80;;;;;;;;;;5084471;28;20202;-48
2023/01/13 01:52:15;;;;;;;7.13;2.70;;;;;;;;;;5079535;28;20183;-49
2023/01/13 01:54:54;;;;;;;8.73;2.70;;;;;;;;;;5083855;28;20510;-49
2023/01/13 01:57:24;;;;;;;7.10;3.13;;;;;;;;;;5078348;28;20707;-50
2023/01/13 01:59:50;;;;;;;4.80;2.63;;;;;;;;;;5085449;28;20184;-49
2023/01/13 02:02:16;;;;;;;6.27;2.27;;;;;;;;;;5077853;28;20314;-51
2023/01/13 02:04:49;;;;;;;6.07;3.23;;;;;;;;;;5065381;28;20184;-48
2023/01/13 02:07:17;;;;;;;5.87;2.30;;;;;;;;;;5081917;28;20176;-49
2023/01/13 02:09:43;;;;;;;5.93;2.37;;;;;;;;;;5077384;28;20203;-50
2023/01/13 02:12:28;;;;;;;9.83;2.80;;;;;;;;;;5084214;28;20180;-50
2023/01/13 02:14:54;;;;;;;9.25;3.13;;;;;;;;;;5073965;28;20430;-48
2023/01/13 02:17:20;;;;;;;6.70;2.93;;;;;;;;;;5077011;28;20275;-51
2023/01/13 02:20:22;;;;;;;4.17;2.40;;;;;;;;;;5077217;28;20187;-51
2023/01/13 02:23:04;;;;;;;5.13;2.27;;;;;;;;;;4997946;28;20801;-51
2023/01/13 02:25:39;;;;;;;6.70;2.97;;;;;;;;;;5076774;28;20200;-50
2023/01/13 02:28:14;;;;;;;7.43;2.70;;;;;;;;;;5058542;28;20209;-48
2023/01/13 02:33:57;;;;;;;6.97;3.77;;;;;;;;;;5083243;28;20191;-49
2023/01/13 02:36:32;;;;;;;4.30;2.30;;;;;;;;;;5080032;28;20223;-51
2023/01/13 02:39:04;;;;;;;5.10;2.50;;;;;;;;;;5077512;28;20187;-49
2023/01/13 02:44:58;;;;;;;8.40;2.30;;;;;;;;;;5071387;28;20560;-49
2023/01/13 02:47:25;;;;;;;7.07;2.30;;;;;;;;;;5038971;28;20677;-51
2023/01/13 02:49:57;;;;;;;4.43;2.43;;;;;;;;;;5080495;28;20705;-50
2023/01/13 02:52:35;;;;;;;7.27;3.17;;;;;;;;;;5078316;28;20290;-51
2023/01/13 02:55:10;;;;;;;8.10;2.53;;;;;;;;;;5077924;28;20615;-49
2023/01/13 02:57:37;;;;;;;11.77;2.90;;;;;;;;;;5064295;28;20282;-50
2023/01/13 03:00:05;;;;;;;7.17;2.90;;;;;;;;;;5084734;28;20706;-50
2023/01/13 03:02:31;;;;;;;6.00;2.43;;;;;;;;;;5083754;28;20175;-49
2023/01/13 03:04:58;;;;;;;10.93;3.47;;;;;;;;;;5086572;28;20176;-50
2023/01/13 03:07:24;;;;;;;7.13;3.23;;;;;;;;;;5064793;28;20207;-50
2023/01/13 03:09:57;;;;;;;9.40;3.13;;;;;;;;;;5082987;28;20550;-48
2023/01/13 03:12:42;;;;;;;9.27;2.43;;;;;;;;;;5079068;28;20233;-51
2023/01/13 03:15:25;;;;;;;10.13;3.27;;;;;;;;;;5085004;28;20249;-49
2023/01/13 03:17:51;;;;;;;7.53;2.63;;;;;;;;;;5079841;28;20599;-49
2023/01/13 03:20:23;;;;;;;6.53;2.63;;;;;;;;;;5080314;28;20187;-49
2023/01/13 03:22:49;;;;;;;5.30;2.57;;;;;;;;;;5071552;28;20219;-48
2023/01/13 03:25:18;;;;;;;9.37;3.93;;;;;;;;;;5082955;28;20180;-48
2023/01/13 03:27:44;;;;;;;5.40;2.47;;;;;;;;;;5069915;28;20188;-49
2023/01/13 03:30:10;;;;;;;5.50;2.93;;;;;;;;;;5083075;28;20634;-51
2023/01/13 03:32:38;;;;;;;5.97;1.83;;;;;;;;;;5078224;28;20664;-52
2023/01/13 03:35:11;;;;;;;6.23;2.10;;;;;;;;;;5076194;28;20224;-50
2023/01/13 03:37:40;;;;;;;6.23;1.97;;;;;;;;;;5078394;28;20243;-51
2023/01/13 03:40:17;;;;;;;5.50;2.50;;;;;;;;;;5080106;28;20207;-50
2023/01/13 03:44:20;;;;;;;5.07;2.60;;;;;;;;;;5078534;28;20184;-50
2023/01/13 03:45:32;;;;;;;4.60;2.23;;;;;;;;;;5072170;28;20179;-49
2023/01/13 03:47:59;;;;;;;5.57;1.97;;;;;;;;;;5060014;28;21005;-51
2023/01/13 03:50:28;;;;;;;6.40;2.27;;;;;;;;;;5080941;28;20233;-49
2023/01/13 03:53:07;;;;;;;3.63;2.03;;;;;;;;;;5079850;28;20176;-50
2023/01/13 03:55:35;;;;;;;6.57;2.27;;;;;;;;;;5083909;28;20574;-49
2023/01/13 03:58:09;;;;;;;4.90;1.47;;;;;;;;;;5077934;28;20176;-49
2023/01/13 04:00:42;;;;;;;3.77;1.70;;;;;;;;;;5074898;28;20183;-49
2023/01/13 04:03:11;;;;;;;7.43;3.23;;;;;;;;;;5078609;28;20275;-49
2023/01/13 04:05:40;;;;;;;5.73;1.50;;;;;;;;;;5076354;28;20184;-49
2023/01/13 04:08:26;;;;;;;2.87;1.93;;;;;;;;;;5077577;28;20235;-52
2023/01/13 04:11:05;;;;;;;7.90;2.47;;;;;;;;;;5048938;28;20704;-51
2023/01/13 04:13:33;;;;;;;4.37;1.83;;;;;;;;;;5075662;28;20168;-52
2023/01/13 04:15:59;;;;;;;5.87;2.03;;;;;;;;;;5076667;28;20180;-50
2023/01/13 04:18:29;;;;;;;3.97;2.30;;;;;;;;;;5072162;28;20599;-52
2023/01/13 04:20:59;;;;;;;5.40;1.93;;;;;;;;;;5070905;28;20225;-50
2023/01/13 04:23:26;;;;;;;5.90;2.10;;;;;;;;;;5075530;28;20176;-49
2023/01/13 04:25:53;;;;;;;4.90;2.30;;;;;;;;;;5075388;28;20171;-50
2023/01/13 04:28:19;;;;;;;7.63;2.47;;;;;;;;;;5079157;28;20196;-49
2023/01/13 04:30:45;;;;;;;6.60;1.80;;;;;;;;;;5074403;28;20184;-50
2023/01/13 04:33:12;;;;;;;8.00;3.53;;;;;;;;;;5072440;28;20171;-52
2023/01/13 04:35:38;;;;;;;8.60;2.40;;;;;;;;;;5075232;28;20172;-49
2023/01/13 04:38:07;;;;;;;9.20;3.10;;;;;;;;;;5073287;28;20186;-50
2023/01/13 04:40:33;;;;;;;5.13;2.30;;;;;;;;;;5077572;28;20644;-50
2023/01/13 04:42:59;;;;;;;5.30;2.60;;;;;;;;;;5075028;28;20729;-50
2023/01/13 04:45:25;;;;;;;4.77;2.10;;;;;;;;;;5078838;28;20198;-50
2023/01/13 04:47:51;;;;;;;8.10;2.20;;;;;;;;;;5075852;28;20286;-50
2023/01/13 04:50:21;;;;;;;4.13;2.50;;;;;;;;;;5074074;28;20172;-49
2023/01/13 04:52:47;;;;;;;8.27;2.53;;;;;;;;;;5073701;28;20175;-49
2023/01/13 04:55:14;;;;;;;7.03;2.83;;;;;;;;;;5073596;28;20180;-50
2023/01/13 04:57:40;;;;;;;10.63;2.90;;;;;;;;;;5070833;28;20177;-49
2023/01/13 05:00:06;;;;;;;7.57;2.67;;;;;;;;;;5082056;28;20740;-49
2023/01/13 05:02:32;;;;;;;6.87;2.80;;;;;;;;;;5077309;28;20207;-52
2023/01/13 05:04:59;;;;;;;9.33;3.50;;;;;;;;;;5077846;28;20168;-49
2023/01/13 05:07:25;;;;;;;7.30;2.70;;;;;;;;;;5078567;28;20599;-51
2023/01/13 05:09:51;;;;;;;9.07;3.17;;;;;;;;;;5079207;28;20250;-51
2023/01/13 05:17:47;;;;;;;10.47;3.20;;;;;;;;;;5077136;28;20626;-51
2023/01/13 05:20:13;;;;;;;12.17;3.37;;;;;;;;;;5084569;28;20619;-51
2023/01/13 05:25:25;;;;;;;8.57;3.30;;;;;;;;;;5073328;28;20641;-50
2023/01/13 05:27:53;;;;;;;7.07;2.43;;;;;;;;;;5071940;28;20273;-50
2023/01/13 05:30:24;;;;;;;6.90;2.00;;;;;;;;;;5080734;28;20194;-50
2023/01/13 05:32:50;;;;;;;6.60;2.93;;;;;;;;;;5083263;28;20169;-49
2023/01/13 05:35:17;;;;;;;6.37;2.33;;;;;;;;;;5079577;28;20597;-49
2023/01/13 05:37:43;;;;;;;6.07;2.33;;;;;;;;;;5081039;27;20281;-51
2023/01/13 05:43:21;;;;;;;6.67;2.10;;;;;;;;;;5078611;28;20237;-52
2023/01/13 05:45:48;;;;;;;6.60;2.97;;;;;;;;;;5077427;28;20180;-49
2023/01/13 05:48:14;;;;;;;7.77;2.10;;;;;;;;;;5074412;28;20353;-50
2023/01/13 05:50:40;;;;;;;4.90;2.17;;;;;;;;;;5073575;28;20581;-50
2023/01/13 05:53:06;;;;;;;8.70;2.17;;;;;;;;;;5081595;28;20168;-49
2023/01/13 05:55:32;;;;;;;8.40;2.57;;;;;;;;;;5085269;28;20236;-49
2023/01/13 05:57:59;;;;;;;6.43;2.10;;;;;;;;;;5077298;28;20246;-49
2023/01/13 06:00:25;;;;;;;8.67;2.13;;;;;;;;;;5063601;28;20673;-49
2023/01/13 06:02:51;;;;;;;7.80;2.70;;;;;;;;;;5065517;28;20720;-50
2023/01/13 06:05:17;;;;;;;5.83;3.10;;;;;;;;;;5062840;28;20652;-49
2023/01/13 06:07:43;;;;;;;9.93;3.07;;;;;;;;;;5081968;28;20180;-52
2023/01/13 06:10:09;;;;;;;5.93;2.97;;;;;;;;;;5076600;28;20171;-50
2023/01/13 06:12:36;;;;;;;6.67;2.60;;;;;;;;;;5081552;28;20772;-48
2023/01/13 06:15:02;;;;;;;5.37;2.00;;;;;;;;;;5078850;28;20331;-50
2023/01/13 06:17:28;;;;;;;9.60;3.87;;;;;;;;;;5082999;28;20461;-50
2023/01/13 06:19:54;;;;;;;5.57;2.60;;;;;;;;;;5064765;28;20727;-49
2023/01/13 06:22:20;;;;;;;7.67;2.57;;;;;;;;;;5071240;28;20179;-50
2023/01/13 06:24:46;;;;;;;7.30;2.43;;;;;;;;;;5073132;28;20177;-50
2023/01/13 06:27:12;;;;;;;8.10;3.60;;;;;;;;;;5085928;28;20225;-49
2023/01/13 06:29:38;;;;;;;9.70;2.67;;;;;;;;;;5073933;28;20262;-49
2023/01/13 06:32:06;;;;;;;6.57;2.23;;;;;;;;;;5086669;28;20630;-49
2023/01/13 06:34:33;;;;;;;10.23;2.60;;;;;;;;;;5062913;28;20180;-51
2023/01/13 06:37:00;;;;;;;7.50;2.23;;;;;;;;;;5075194;27;20239;-49
2023/01/13 06:39:29;;;;;;;7.23;2.10;;;;;;;;;;5083715;28;20176;-49
2023/01/13 06:44:41;;;;;;;7.77;2.37;;;;;;;;;;5083301;28;20195;-50
2023/01/13 06:47:07;;;;;;;10.07;2.13;;;;;;;;;;5087235;28;20278;-49
2023/01/13 06:49:34;;;;;;;6.93;1.97;;;;;;;;;;5085962;28;20207;-50
2023/01/13 06:52:00;;;;;;;8.67;2.60;;;;;;;;;;5081878;28;20237;-50
2023/01/13 06:54:26;;;;;;;3.90;2.20;;;;;;;;;;5084609;28;20171;-50
2023/01/13 06:56:52;;;;;;;7.57;2.53;;;;;;;;;;5080946;28;20607;-50
2023/01/13 06:59:18;;;;;;;14.80;2.97;;;;;;;;;;5088084;28;20675;-51
2023/01/13 07:01:44;;;;;;;12.60;1.93;;;;;;;;;;5058787;28;20200;-51
2023/01/13 07:04:11;;;;;;;5.83;2.43;;;;;;;;;;5086389;28;20199;-50
2023/01/13 07:06:37;;;;;;;7.67;2.97;;;;;;;;;;5088565;28;20184;-50
2023/01/13 07:09:03;;;;;;;5.67;2.00;;;;;;;;;;5083911;28;20191;-49
2023/01/13 07:11:29;;;;;;;7.10;2.40;;;;;;;;;;5064251;28;20643;-50
2023/01/13 07:16:40;;;;;;;6.60;2.33;;;;;;;;;;5083596;28;20210;-49
2023/01/13 07:19:06;;;;;;;5.87;2.30;;;;;;;;;;5082402;28;20669;-50
2023/01/13 07:21:32;;;;;;;6.70;2.03;;;;;;;;;;5076148;28;20273;-49
2023/01/13 07:23:58;;;;;;;7.60;2.13;;;;;;;;;;5084187;28;20179;-49
2023/01/13 07:26:24;;;;;;;10.77;2.27;;;;;;;;;;5081299;28;20187;-50
2023/01/13 07:28:50;;;;;;;3.07;1.80;;;;;;;;;;5083882;28;20644;-50
2023/01/13 07:31:20;;;;;;;6.40;2.20;;;;;;;;;;5075240;28;20694;-50
2023/01/13 07:33:46;;;;;;;5.97;2.20;;;;;;;;;;5078117;28;20228;-48
2023/01/13 07:36:13;;;;;;;8.07;2.90;;;;;;;;;;5079236;28;20250;-49
2023/01/13 07:38:39;;;;;;;6.57;2.20;;;;;;;;;;5069161;28;20233;-50
2023/01/13 07:43:51;;;;;;;6.70;2.13;;;;;;;;;;5074519;28;20223;-51
2023/01/13 07:46:17;;;;;;;4.87;2.50;;;;;;;;;;5075874;28;20321;-49
2023/01/13 07:48:44;;;;;;;9.47;3.00;;;;;;;;;;5073429;28;20218;-51
2023/01/13 07:51:11;;;;;;;4.03;2.20;;;;;;;;;;5078626;28;20172;-51
2023/01/13 07:53:38;;;;;;;9.80;3.03;;;;;;;;;;5085964;28;20766;-52
2023/01/13 07:56:05;;;;;;;5.80;2.20;;;;;;;;;;5076952;28;20207;-50
2023/01/13 07:58:32;;;;;;;5.57;2.53;;;;;;;;;;5083113;28;20187;-50
2023/01/13 08:00:58;;;;;;;5.90;2.07;;;;;;;;;;5050352;28;20187;-50
2023/01/13 08:03:24;;;;;;;4.27;2.57;;;;;;;;;;5080692;28;20190;-50
2023/01/13 08:05:57;;;;;;;6.07;2.60;;;;;;;;;;5084457;28;20176;-50
2023/01/13 08:08:23;;;;;;;6.93;2.83;;;;;;;;;;5075451;28;20188;-50
2023/01/13 08:10:49;;;;;;;5.57;2.27;;;;;;;;;;5081015;28;20179;-50
2023/01/13 08:13:16;;;;;;;7.50;2.97;;;;;;;;;;5067695;28;20172;-50
2023/01/13 08:15:42;;;;;;;8.20;2.73;;;;;;;;;;5082737;28;20176;-50
2023/01/13 08:18:08;;;;;;;7.03;2.53;;;;;;;;;;5083478;28;20199;-49
2023/01/13 08:20:34;;;;;;;5.20;2.43;;;;;;;;;;5078756;28;20238;-50
2023/01/13 08:23:01;;;;;;;7.20;2.57;;;;;;;;;;5077899;28;20654;-50
2023/01/13 08:25:27;;;;;;;4.63;2.53;;;;;;;;;;5068208;28;20184;-50
2023/01/13 08:27:54;;;;;;;6.03;2.40;;;;;;;;;;5082898;28;20244;-51
2023/01/13 08:30:20;;;;;;;5.27;2.43;;;;;;;;;;5057497;28;20183;-50
2023/01/13 08:32:47;;;;;;;9.47;2.93;;;;;;;;;;5068443;28;20241;-50
2023/01/13 08:35:14;;;;;;;4.63;2.03;;;;;;;;;;5082829;28;20550;-51
2023/01/13 08:37:40;;;;;;;8.07;2.67;;;;;;;;;;5072145;28;20902;-51
2023/01/13 08:40:07;;;;;;;8.50;2.73;;;;;;;;;;5079292;28;20184;-50
2023/01/13 08:42:33;;;;;;;7.00;2.90;;;;;;;;;;5082847;28;20226;-50
2023/01/13 08:45:06;;;;;;;6.63;2.73;;;;;;;;;;5075030;28;20180;-51
2023/01/13 08:47:32;;;;;;;6.47;2.20;;;;;;;;;;5083121;28;20172;-51
2023/01/13 08:49:58;;;;;;;8.80;2.60;;;;;;;;;;5085379;28;20197;-50
2023/01/13 08:52:24;;;;;;;5.00;2.40;;;;;;;;;;5081529;28;20183;-52
2023/01/13 08:54:50;;;;;;;8.77;2.83;;;;;;;;;;5073298;28;20710;-51
2023/01/13 08:57:18;;;;;;;6.30;2.13;;;;;;;;;;5086662;28;20187;-50
2023/01/13 08:59:45;;;;;;;10.10;2.80;;;;;;;;;;5078869;28;20891;-49
2023/01/13 09:02:14;;;;;;;9.37;2.47;;;;;;;;;;5085361;28;20645;-50
2023/01/13 09:04:40;;;;;;;12.03;2.57;;;;;;;;;;5070914;28;20601;-51
2023/01/13 09:07:07;;;;;;;11.03;3.10;;;;;;;;;;5069330;28;20271;-50
2023/01/13 09:09:33;;;;;;;9.03;3.30;;;;;;;;;;5076526;28;20748;-51
2023/01/13 09:14:43;;;;;;;8.37;3.03;;;;;;;;;;5087861;28;20190;-50
2023/01/13 09:17:09;;;;;;;9.83;3.20;;;;;;;;;;5073977;28;20257;-50
2023/01/13 09:19:36;;;;;;;6.67;2.03;;;;;;;;;;5085856;28;20187;-50
2023/01/13 09:22:02;;;;;;;7.37;2.50;;;;;;;;;;5088413;28;20211;-50
2023/01/13 09:24:28;;;;;;;8.10;2.63;;;;;;;;;;5082048;28;20180;-50
2023/01/13 09:26:54;;;;;;;8.03;2.80;;;;;;;;;;5086510;28;20184;-50
2023/01/13 09:29:21;;;;;;;10.87;3.23;;;;;;;;;;5084505;28;20202;-50
2023/01/13 09:31:47;;;;;;;8.20;3.30;;;;;;;;;;5089023;28;20166;-49
2023/01/13 09:36:59;;;;;;;7.27;2.53;;;;;;;;;;5083625;28;20588;-51
2023/01/13 09:39:25;;;;;;;14.07;3.83;;;;;;;;;;5083116;28;20191;-50
2023/01/13 09:44:38;;;;;;;13.37;3.10;;;;;;;;;;5081538;28;20245;-50
2023/01/13 09:47:09;;;;;;;10.47;3.53;;;;;;;;;;5089481;28;20175;-51
2023/01/13 09:49:39;;;;;;;11.43;3.07;;;;;;;;;;5087754;28;20200;-51
2023/01/13 09:52:14;;;;;;;8.70;3.07;;;;;;;;;;5082151;28;20432;-51
2023/01/13 09:54:42;;;;;;;11.40;3.03;;;;;;;;;;5078363;28;20180;-50
2023/01/13 09:57:10;;;;;;;7.40;2.60;;;;;;;;;;5078834;28;20809;-53
2023/01/13 09:59:37;;;;;;;9.50;3.23;;;;;;;;;;5080984;28;20188;-49
2023/01/13 10:02:23;;;;;;;9.53;3.80;;;;;;;;;;5086942;28;20376;-51
2023/01/13 10:05:02;;;;;;;12.00;3.43;;;;;;;;;;5047346;28;20230;-51
2023/01/13 10:07:29;;;;;;;7.70;3.53;;;;;;;;;;5081314;28;20250;-53
2023/01/13 10:09:58;;;;;;;10.03;3.43;;;;;;;;;;5087036;28;20798;-51
2023/01/13 10:15:15;;;;;;;10.40;2.87;;;;;;;;;;5085034;28;20241;-53
2023/01/13 10:17:47;;;;;;;13.10;3.30;;;;;;;;;;5082137;28;20693;-51
2023/01/13 10:20:16;;;;;;;11.70;3.30;;;;;;;;;;5074805;28;20627;-52
2023/01/13 10:22:42;;;;;;;13.43;3.20;;;;;;;;;;5073479;28;20702;-51
2023/01/13 10:25:19;;;;;;;5.93;2.67;;;;;;;;;;5076281;28;20258;-51
2023/01/13 10:27:48;;;;;;;10.27;3.17;;;;;;;;;;5078342;28;20219;-51
2023/01/13 10:30:19;;;;;;;9.70;3.77;;;;;;;;;;5081408;28;20668;-51
2023/01/13 10:32:50;;;;;;;9.47;4.47;;;;;;;;;;5083085;28;20180;-52
2023/01/13 10:35:16;;;;;;;7.77;3.00;;;;;;;;;;5081049;28;20176;-53
2023/01/13 10:37:55;;;;;;;12.87;3.10;;;;;;;;;;5077859;28;20216;-52
2023/01/13 10:40:21;;;;;;;6.80;2.90;;;;;;;;;;5080767;28;20179;-51
2023/01/13 10:42:47;;;;;;;12.87;3.40;;;;;;;;;;5075007;28;20219;-52
2023/01/13 10:45:23;;;;;;;8.60;3.40;;;;;;;;;;5084119;28;20542;-52
2023/01/13 10:48:03;;;;;;;9.87;3.00;;;;;;;;;;5073972;28;20908;-53
2023/01/13 10:50:34;;;;;;;7.53;2.90;;;;;;;;;;5083267;28;20177;-52
2023/01/13 10:53:16;;;;;;;11.63;3.90;;;;;;;;;;5075832;28;20373;-51
2023/01/13 10:55:42;;;;;;;11.83;3.30;;;;;;;;;;5087249;28;20180;-51
2023/01/13 10:58:19;;;;;;;5.63;2.93;;;;;;;;;;5082677;28;20642;-51
2023/01/13 11:00:46;;;;;;;8.50;2.87;;;;;;;;;;5083563;28;20203;-51
2023/01/13 11:03:19;;;;;;;9.63;3.30;;;;;;;;;;5087163;28;20626;-51
2023/01/13 11:05:53;;;;;;;9.73;3.00;;;;;;;;;;5078709;28;20199;-52
2023/01/13 11:08:20;;;;;;;6.00;2.83;;;;;;;;;;5086214;28;20195;-50
2023/01/13 11:10:50;;;;;;;16.83;4.07;;;;;;;;;;5089334;28;20156;-51
2023/01/13 11:13:34;;;;;;;10.07;3.13;;;;;;;;;;5076159;28;20630;-52
2023/01/13 11:16:03;;;;;;;6.87;3.40;;;;;;;;;;5080730;28;20180;-52
2023/01/13 11:18:40;;;;;;;10.90;3.60;;;;;;;;;;5078275;28;20263;-50
2023/01/13 11:21:09;;;;;;;9.43;3.17;;;;;;;;;;5081815;28;20175;-50
2023/01/13 11:23:37;;;;;;;6.80;3.10;;;;;;;;;;5078736;28;20183;-52
2023/01/13 11:26:06;;;;;;;12.87;4.00;;;;;;;;;;5087104;28;20190;-50
2023/01/13 11:28:38;;;;;;;11.63;4.13;;;;;;;;;;5076105;28;20196;-51
2023/01/13 11:31:36;;;;;;;8.93;4.27;;;;;;;;;;5075179;28;20705;-51
2023/01/13 11:34:07;;;;;;;13.10;4.13;;;;;;;;;;5017767;28;20207;-50
2023/01/13 11:36:42;;;;;;;8.20;3.70;;;;;;;;;;5077752;27;20211;-51
2023/01/13 11:39:19;;;;;;;11.70;3.93;;;;;;;;;;5078018;28;20184;-51
2023/01/13 11:42:19;;;;;;;15.30;3.87;;;;;;;;;;5081839;28;21905;-51
2023/01/13 11:44:59;;;;;;;9.63;3.83;;;;;;;;;;5075353;28;20245;-51
2023/01/13 11:47:26;;;;;;;9.87;4.00;;;;;;;;;;5031653;28;20211;-50
2023/01/13 11:49:52;;;;;;;13.90;3.83;;;;;;;;;;5078001;28;20287;-51
2023/01/13 11:52:21;;;;;;;8.87;3.37;;;;;;;;;;5075649;28;20641;-51
2023/01/13 11:54:55;;;;;;;11.93;3.90;;;;;;;;;;5080264;28;20654;-50
2023/01/13 11:57:28;;;;;;;9.13;3.93;;;;;;;;;;5078220;28;20171;-49
2023/01/13 11:59:54;;;;;;;16.60;3.67;;;;;;;;;;5080497;28;20176;-50
2023/01/13 12:02:27;;;;;;;12.23;4.77;;;;;;;;;;5056965;28;20291;-52
2023/01/13 12:04:59;;;;;;;13.23;3.87;;;;;;;;;;5077965;28;20207;-51
2023/01/13 12:07:40;;;;;;;21.10;6.60;;;;;;;;;;5073299;28;20219;-52
2023/01/13 12:10:27;;;;;;;10.20;5.03;;;;;;;;;;5083931;28;20736;-52
2023/01/13 12:12:56;;;;;;;10.33;4.37;;;;;;;;;;5080297;28;20172;-51
2023/01/13 12:15:27;;;;;;;11.17;3.97;;;;;;;;;;5063793;28;20180;-52
2023/01/13 12:18:12;;;;;;;15.57;4.57;;;;;;;;;;5081981;28;20565;-51
2023/01/13 12:20:43;;;;;;;9.10;4.13;;;;;;;;;;5087858;28;20213;-51
2023/01/13 12:23:26;;;;;;;12.33;4.23;;;;;;;;;;5082748;28;20176;-51
2023/01/13 12:25:55;;;;;;;9.47;3.40;;;;;;;;;;5080922;28;20258;-52
2023/01/13 12:28:25;;;;;;;9.63;3.17;;;;;;;;;;5082768;28;20200;-52
2023/01/13 12:30:54;;;;;;;10.17;2.70;;;;;;;;;;5078134;28;20653;-51
2023/01/13 12:33:39;;;;;;;7.83;2.60;;;;;;;;;;5086284;28;20258;-51
2023/01/13 12:36:09;;;;;;;5.13;2.57;;;;;;;;;;5080384;28;20167;-51
2023/01/13 12:38:37;;;;;;;9.93;2.83;;;;;;;;;;5084394;28;20232;-50
2023/01/13 12:41:30;;;;;;;7.07;3.30;;;;;;;;;;5077223;28;20180;-53
2023/01/13 12:44:15;;;;;;;3.70;2.30;;;;;;;;;;5053257;28;20719;-51
2023/01/13 12:46:46;;;;;;;8.83;2.50;;;;;;;;;;5085362;28;20184;-51
2023/01/13 12:49:23;;;;;;;9.10;3.37;;;;;;;;;;5079576;28;20656;-52
2023/01/13 12:51:51;;;;;;;12.50;4.30;;;;;;;;;;5082351;28;20183;-52
2023/01/13 12:54:30;;;;;;;5.30;3.47;;;;;;;;;;5078566;28;20458;-51
2023/01/13 12:56:59;;;;;;;13.27;4.50;;;;;;;;;;5062997;28;20214;-53
2023/01/13 12:59:25;;;;;;;8.30;4.13;;;;;;;;;;5084865;28;20188;-51
2023/01/13 13:02:17;;;;;;;10.03;4.60;;;;;;;;;;5077079;28;20188;-51
2023/01/13 13:04:45;;;;;;;13.40;5.80;;;;;;;;;;5054002;28;20424;-51
2023/01/13 13:07:22;;;;;;;14.27;6.40;;;;;;;;;;5078651;28;20654;-51
2023/01/13 13:09:57;;;;;;;14.83;5.63;;;;;;;;;;5073957;28;20207;-52
2023/01/13 13:15:25;;;;;;;9.77;4.63;;;;;;;;;;5075698;28;20703;-52
2023/01/13 13:18:05;;;;;;;9.13;4.57;;;;;;;;;;5080886;28;20208;-53
2023/01/13 13:20:49;;;;;;;12.17;4.13;;;;;;;;;;5085044;28;20171;-51
2023/01/13 13:23:28;;;;;;;15.20;5.43;;;;;;;;;;5070415;28;20270;-51
2023/01/13 13:26:03;;;;;;;8.57;4.40;;;;;;;;;;5075020;28;20222;-52
2023/01/13 13:28:34;;;;;;;9.83;4.17;;;;;;;;;;5084370;28;20195;-52
2023/01/13 13:31:23;;;;;;;9.40;4.20;;;;;;;;;;5081119;28;20169;-52
2023/01/13 13:34:01;;;;;;;12.07;3.93;;;;;;;;;;5076876;28;20186;-51
2023/01/13 13:37:00;;;;;;;12.13;4.80;;;;;;;;;;5083909;28;20172;-51
2023/01/13 13:47:59;;;;;;;9.43;3.60;;;;;;;;;;5074479;28;20226;-52
2023/01/13 13:50:28;;;;;;;11.43;4.50;;;;;;;;;;5078021;28;20183;-52
2023/01/13 13:53:05;;;;;;;9.90;4.57;;;;;;;;;;5078012;28;20192;-53
2023/01/13 13:55:32;;;;;;;9.87;4.77;;;;;;;;;;5077246;28;20177;-50
2023/01/13 13:58:00;;;;;;;12.87;5.43;;;;;;;;;;5080213;28;20180;-51
2023/01/13 14:00:29;;;;;;;9.63;4.87;;;;;;;;;;5065671;28;20180;-51
2023/01/13 14:03:02;;;;;;;14.87;5.73;;;;;;;;;;5087788;28;20231;-52
2023/01/13 14:05:35;;;;;;;7.33;4.80;;;;;;;;;;5074931;28;20499;-52
2023/01/13 14:08:12;;;;;;;7.80;4.23;;;;;;;;;;5081329;28;20674;-51
2023/01/13 14:10:40;;;;;;;9.90;4.50;;;;;;;;;;5087189;28;20275;-52
2023/01/13 14:13:20;;;;;;;9.60;4.70;;;;;;;;;;5080193;28;20619;-52
2023/01/13 14:15:47;;;;;;;9.23;5.00;;;;;;;;;;5077648;28;20176;-52
2023/01/13 14:18:15;;;;;;;10.43;5.47;;;;;;;;;;5083044;28;20666;-51
2023/01/13 14:20:42;;;;;;;10.53;5.13;;;;;;;;;;5082107;28;20176;-52
2023/01/13 14:23:14;;;;;;;9.63;5.53;;;;;;;;;;5083964;28;20211;-51
2023/01/13 14:25:47;;;;;;;9.03;4.77;;;;;;;;;;5076588;28;20195;-53
2023/01/13 14:28:18;;;;;;;16.57;5.43;;;;;;;;;;5077243;28;20604;-52
2023/01/13 14:30:44;;;;;;;8.73;4.97;;;;;;;;;;5077654;28;20183;-51
2023/01/13 14:33:18;;;;;;;11.00;5.47;;;;;;;;;;5078100;28;20317;-52
2023/01/13 14:36:03;;;;;;;10.93;6.00;;;;;;;;;;5076740;28;20578;-51
2023/01/13 14:38:29;;;;;;;14.30;6.50;;;;;;;;;;5078425;28;20307;-51
2023/01/13 14:40:55;;;;;;;14.73;5.47;;;;;;;;;;5075326;28;20661;-51
2023/01/13 14:43:29;;;;;;;9.80;5.20;;;;;;;;;;5079191;28;20218;-53
2023/01/13 14:45:57;;;;;;;10.70;4.97;;;;;;;;;;5057375;28;20180;-53
2023/01/13 14:48:29;;;;;;;10.17;5.07;;;;;;;;;;5085708;28;20204;-50
2023/01/13 14:50:56;;;;;;;11.63;6.50;;;;;;;;;;5080447;28;20171;-53
2023/01/13 14:53:38;;;;;;;11.23;5.23;;;;;;;;;;5083925;28;20192;-53
2023/01/13 14:56:22;;;;;;;13.20;6.03;;;;;;;;;;5080478;28;20561;-52
2023/01/13 14:58:49;;;;;;;11.23;5.23;;;;;;;;;;5079279;28;20195;-57
2023/01/13 15:01:35;;;;;;;10.40;5.80;;;;;;;;;;5069191;28;20165;-51
2023/01/13 15:04:37;;;;;;;8.40;4.77;;;;;;;;;;5080068;28;20597;-50
2023/01/13 15:07:03;;;;;;;8.33;4.63;;;;;;;;;;4998459;28;20196;-51
2023/01/13 15:09:36;;;;;;;8.67;4.53;;;;;;;;;;5058684;28;20224;-52
2023/01/13 15:12:14;;;;;;;8.83;4.70;;;;;;;;;;5078174;28;20197;-51
2023/01/13 15:14:41;;;;;;;8.67;4.40;;;;;;;;;;5081176;28;20584;-50
2023/01/13 15:17:15;;;;;;;7.00;4.87;;;;;;;;;;5074495;28;20235;-51
2023/01/13 15:19:41;;;;;;;12.93;5.33;;;;;;;;;;5080565;28;20180;-53
2023/01/13 15:22:07;;;;;;;12.07;5.37;;;;;;;;;;5084731;28;20188;-52
2023/01/13 15:24:33;;;;;;;15.03;5.37;;;;;;;;;;5079960;28;20591;-52
2023/01/13 15:26:59;;;;;;;8.73;4.50;;;;;;;;;;5067531;28;20184;-51
2023/01/13 15:29:27;;;;;;;7.37;4.17;;;;;;;;;;5082309;28;20287;-52
2023/01/13 15:32:01;;;;;;;10.27;4.50;;;;;;;;;;5075024;28;20551;-51
2023/01/13 15:34:27;;;;;;;13.27;4.23;;;;;;;;;;5074875;28;20248;-51
2023/01/13 15:37:06;;;;;;;9.63;5.00;;;;;;;;;;5064211;28;20186;-51
2023/01/13 15:39:32;;;;;;;9.87;4.10;;;;;;;;;;5081996;28;20641;-52
2023/01/13 15:47:28;;;;;;;8.63;3.47;;;;;;;;;;5062925;28;20646;-52
2023/01/13 15:49:55;;;;;;;10.83;4.33;;;;;;;;;;5040343;28;20231;-53
2023/01/13 15:52:23;;;;;;;13.73;3.53;;;;;;;;;;5067350;28;20176;-53
2023/01/13 15:54:52;;;;;;;9.20;3.90;;;;;;;;;;5066388;28;20217;-54